Time,TemperatureF,DewpointF,PressureIn,WindDirection,WindDirectionDegrees,WindSpeedMPH,WindSpeedGustMPH,Humidity,HourlyPrecipIn,Conditions,Clouds,dailyrainin,SoftwareType,DateUTC
2013-03-27 00:02:00,35.9,15.1,29.56,South,183,2.0,3.6,42,0.00,,,0.00,WSDL version 426,2013-03-27 05:02:00,
2013-03-27 00:07:00,36.1,15.2,29.56,SE,135,1.7,3.6,42,0.00,,,0.00,WSDL version 426,2013-03-27 05:07:00,
2013-03-27 00:12:00,35.8,15.0,29.53,ENE,68,0.7,3.4,42,0.00,,,0.00,WSDL version 426,2013-03-27 05:12:00,
2013-03-27 00:17:00,35.5,15.0,29.53,ESE,108,1.7,3.1,43,0.00,,,0.00,WSDL version 426,2013-03-27 05:17:00,
2013-03-27 00:22:00,35.3,15.0,29.53,ESE,113,0.4,3.4,43,0.00,,,0.00,WSDL version 426,2013-03-27 05:22:00,
2013-03-27 00:28:00,35.1,14.9,29.53,ESE,113,1.4,3.4,43,0.00,,,0.00,WSDL version 426,2013-03-27 05:28:00,
2013-03-27 00:36:00,-999.0,-99.9,-100.00,North,0,0.0,3.1,-999,-99.99,,,-99.99,WSDL version 426,2013-03-27 05:36:00,
2013-03-27 00:41:00,35.4,15.1,29.53,SSE,167,1.6,2.5,43,0.00,,,0.00,WSDL version 426,2013-03-27 05:41:00,
2013-03-27 00:47:00,35.5,15.2,29.53,South,180,1.3,2.5,43,0.00,,,0.00,WSDL version 426,2013-03-27 05:47:00,
2013-03-27 00:52:00,35.5,15.3,29.53,SSE,158,1.5,2.7,43,0.00,,,0.00,WSDL version 426,2013-03-27 05:52:00,
2013-03-27 00:57:00,35.4,15.1,29.53,SSE,158,2.1,3.1,43,0.00,,,0.00,WSDL version 426,2013-03-27 05:57:00,
2013-03-27 01:03:00,35.4,15.1,29.53,SSE,158,1.4,3.4,43,0.00,,,0.00,WSDL version 426,2013-03-27 06:03:00,
2013-03-27 01:08:00,35.3,15.0,29.53,SSE,158,0.7,2.9,43,0.00,,,0.00,WSDL version 426,2013-03-27 06:08:00,
2013-03-27 01:13:00,35.1,14.9,29.53,SSE,163,0.7,2.9,43,0.00,,,0.00,WSDL version 426,2013-03-27 06:13:00,
2013-03-27 01:18:00,35.1,15.2,29.53,SSE,150,1.5,3.4,44,0.00,,,0.00,WSDL version 426,2013-03-27 06:18:00,
2013-03-27 01:23:00,35.2,15.5,29.53,SSE,152,1.3,3.4,44,0.00,,,0.00,WSDL version 426,2013-03-27 06:23:00,
2013-03-27 01:28:00,35.2,15.4,29.50,SE,135,1.0,3.4,44,0.00,,,0.00,WSDL version 426,2013-03-27 06:28:00,
2013-03-27 01:34:00,34.9,15.2,29.50,SSE,153,0.5,2.7,44,0.00,,,0.00,WSDL version 426,2013-03-27 06:34:00,
2013-03-27 01:39:00,34.9,15.2,29.50,SSE,160,1.7,2.5,44,0.00,,,0.00,WSDL version 426,2013-03-27 06:39:00,
2013-03-27 01:44:00,35.0,15.3,29.50,SSE,158,0.8,2.5,44,0.00,,,0.00,WSDL version 426,2013-03-27 06:44:00,
2013-03-27 01:49:00,34.9,15.2,29.50,SSE,158,0.4,3.1,44,0.00,,,0.00,WSDL version 426,2013-03-27 06:49:00,
2013-03-27 01:54:00,35.0,15.7,29.50,SSW,194,1.0,3.1,45,0.00,,,0.00,WSDL version 426,2013-03-27 06:54:00,
2013-03-27 01:59:00,35.1,15.9,29.50,South,180,0.7,2.9,45,0.00,,,0.00,WSDL version 426,2013-03-27 06:59:00,
2013-03-27 02:04:00,35.2,16.0,29.50,SSE,166,1.1,2.5,45,0.00,,,0.00,WSDL version 426,2013-03-27 07:04:00,
2013-03-27 02:09:00,35.2,16.0,29.50,SSE,158,1.7,3.1,45,0.00,,,0.00,WSDL version 426,2013-03-27 07:09:00,
2013-03-27 02:14:00,35.1,15.9,29.50,SSE,163,1.4,3.1,45,0.00,,,0.00,WSDL version 426,2013-03-27 07:14:00,
2013-03-27 02:19:00,35.1,16.2,29.50,SE,138,2.3,5.4,46,0.00,,,0.00,WSDL version 426,2013-03-27 07:19:00,
2013-03-27 02:24:00,35.0,16.3,29.50,ESE,120,1.8,5.4,46,0.00,,,0.00,WSDL version 426,2013-03-27 07:24:00,
2013-03-27 02:29:00,34.9,16.5,29.50,SE,124,2.4,4.3,47,0.00,,,0.00,WSDL version 426,2013-03-27 07:29:00,
2013-03-27 02:34:00,34.9,16.8,29.50,ESE,120,3.1,4.9,48,0.00,,,0.00,WSDL version 426,2013-03-27 07:34:00,
2013-03-27 02:40:00,35.0,18.1,29.50,ESE,118,3.7,5.8,50,0.00,,,0.00,WSDL version 426,2013-03-27 07:40:00,
2013-03-27 02:45:00,35.1,18.8,29.47,SE,125,3.2,7.6,51,0.00,,,0.00,WSDL version 426,2013-03-27 07:45:00,
2013-03-27 02:50:00,35.2,18.6,29.47,SE,129,3.4,7.6,50,0.00,,,0.00,WSDL version 426,2013-03-27 07:50:00,
2013-03-27 02:55:00,35.3,18.8,29.47,SE,128,3.9,6.0,51,0.00,,,0.00,WSDL version 426,2013-03-27 07:55:00,
2013-03-27 03:00:00,35.4,18.9,29.47,SE,127,3.9,6.0,51,0.00,,,0.00,WSDL version 426,2013-03-27 08:00:00,
2013-03-27 03:06:00,35.4,18.7,29.47,SE,140,3.0,6.0,50,0.00,,,0.00,WSDL version 426,2013-03-27 08:06:00,
2013-03-27 03:11:00,35.4,18.6,29.47,SE,124,2.4,4.7,50,0.00,,,0.00,WSDL version 426,2013-03-27 08:11:00,
2013-03-27 03:16:00,35.4,18.6,29.47,SSE,150,1.3,4.3,50,0.00,,,0.00,WSDL version 426,2013-03-27 08:16:00,
2013-03-27 03:22:00,35.2,18.1,29.47,SSE,152,0.8,3.6,49,0.00,,,0.00,WSDL version 426,2013-03-27 08:22:00,
2013-03-27 03:27:00,35.1,17.9,29.47,SSE,158,0.0,3.6,49,0.00,,,0.00,WSDL version 426,2013-03-27 08:27:00,
2013-03-27 03:32:00,34.9,17.7,29.47,SE,127,1.6,3.6,49,0.00,,,0.00,WSDL version 426,2013-03-27 08:32:00,
2013-03-27 03:37:00,34.9,17.7,29.47,SE,125,1.8,4.7,49,0.00,,,0.00,WSDL version 426,2013-03-27 08:37:00,
2013-03-27 03:42:00,34.9,17.8,29.47,East,96,2.6,4.7,50,0.00,,,0.00,WSDL version 426,2013-03-27 08:42:00,
2013-03-27 03:48:00,34.9,18.1,29.47,ESE,123,3.2,4.9,50,0.00,,,0.00,WSDL version 426,2013-03-27 08:48:00,
2013-03-27 03:53:00,34.9,18.1,29.47,ESE,110,2.8,5.6,50,0.00,,,0.00,WSDL version 426,2013-03-27 08:53:00,
2013-03-27 03:58:00,34.9,18.1,29.47,ESE,115,3.2,5.6,50,0.00,,,0.00,WSDL version 426,2013-03-27 08:58:00,
2013-03-27 04:03:00,34.7,18.3,29.47,SE,127,3.9,4.9,51,0.00,,,0.00,WSDL version 426,2013-03-27 09:03:00,
2013-03-27 04:08:00,34.6,18.0,29.47,ESE,123,2.4,4.9,50,0.00,,,0.00,WSDL version 426,2013-03-27 09:08:00,
2013-03-27 04:13:00,34.3,17.6,29.47,ESE,118,3.5,4.7,50,0.00,,,0.00,WSDL version 426,2013-03-27 09:13:00,
2013-03-27 04:18:00,34.2,17.5,29.47,SE,125,2.5,4.7,50,0.00,,,0.00,WSDL version 426,2013-03-27 09:18:00,
2013-03-27 04:23:00,34.1,17.4,29.47,SE,143,1.8,4.3,50,0.00,,,0.00,WSDL version 426,2013-03-27 09:23:00,
2013-03-27 04:28:00,34.0,17.3,29.47,SSE,158,1.1,3.6,50,0.00,,,0.00,WSDL version 426,2013-03-27 09:28:00,
2013-03-27 04:33:00,34.0,17.3,29.47,ESE,118,2.0,3.1,50,0.00,,,0.00,WSDL version 426,2013-03-27 09:33:00,
2013-03-27 04:38:00,33.8,17.1,29.47,SE,135,1.4,3.1,50,0.00,,,0.00,WSDL version 426,2013-03-27 09:38:00,
2013-03-27 04:43:00,33.8,17.1,29.47,SE,128,1.9,3.4,50,0.00,,,0.00,WSDL version 426,2013-03-27 09:43:00,
2013-03-27 04:48:00,33.8,17.5,29.47,SE,128,4.2,5.6,52,0.00,,,0.00,WSDL version 426,2013-03-27 09:48:00,
2013-03-27 04:53:00,34.0,17.8,29.47,ESE,113,2.5,5.6,51,0.00,,,0.00,WSDL version 426,2013-03-27 09:53:00,
2013-03-27 04:58:00,33.9,17.7,29.47,ESE,115,2.5,4.0,51,0.00,,,0.00,WSDL version 426,2013-03-27 09:58:00,
2013-03-27 05:03:00,33.9,17.9,29.47,SE,129,3.7,5.6,52,0.00,,,0.00,WSDL version 426,2013-03-27 10:03:00,
2013-03-27 05:08:00,34.0,18.4,29.47,SE,143,2.5,5.6,52,0.00,,,0.00,WSDL version 426,2013-03-27 10:08:00,
2013-03-27 05:13:00,34.0,18.2,29.47,SE,141,0.0,4.0,52,0.00,,,0.00,WSDL version 426,2013-03-27 10:13:00,
2013-03-27 05:18:00,33.8,18.1,29.47,SSE,158,0.0,2.9,52,0.00,,,0.00,WSDL version 426,2013-03-27 10:18:00,
2013-03-27 05:23:00,33.8,17.7,29.47,ESE,123,0.9,2.9,51,0.00,,,0.00,WSDL version 426,2013-03-27 10:23:00,
2013-03-27 05:28:00,33.7,17.8,29.47,ESE,119,0.0,2.9,52,0.00,,,0.00,WSDL version 426,2013-03-27 10:28:00,
2013-03-27 05:33:00,33.6,17.9,29.47,SSE,148,0.9,3.4,52,0.00,,,0.00,WSDL version 426,2013-03-27 10:33:00,
2013-03-27 05:38:00,33.5,17.8,29.47,ESE,121,2.2,3.4,52,0.00,,,0.00,WSDL version 426,2013-03-27 10:38:00,
2013-03-27 05:43:00,33.3,17.6,29.47,East,98,0.9,3.4,52,0.00,,,0.00,WSDL version 426,2013-03-27 10:43:00,
2013-03-27 05:48:00,33.1,17.4,29.47,East,90,0.0,2.7,52,0.00,,,0.00,WSDL version 426,2013-03-27 10:48:00,
2013-03-27 05:53:00,33.1,17.4,29.47,SSE,149,1.3,2.5,52,0.00,,,0.00,WSDL version 426,2013-03-27 10:53:00,
2013-03-27 05:58:00,33.0,17.3,29.47,South,170,1.2,2.7,52,0.00,,,0.00,WSDL version 426,2013-03-27 10:58:00,
2013-03-27 06:03:00,32.9,17.2,29.47,SE,143,1.8,3.8,52,0.00,,,0.00,WSDL version 426,2013-03-27 11:03:00,
2013-03-27 06:08:00,32.8,17.4,29.47,SSE,165,2.3,3.8,53,0.00,,,0.00,WSDL version 426,2013-03-27 11:08:00,
2013-03-27 06:13:00,32.7,17.5,29.50,SSE,152,1.5,3.6,53,0.00,,,0.00,WSDL version 426,2013-03-27 11:13:00,
2013-03-27 06:18:00,32.5,17.3,29.50,SE,141,1.8,3.8,53,0.00,,,0.00,WSDL version 426,2013-03-27 11:18:00,
2013-03-27 06:23:00,32.5,17.3,29.50,SE,146,2.2,4.0,53,0.00,,,0.00,WSDL version 426,2013-03-27 11:23:00,
2013-03-27 06:28:00,32.5,17.3,29.50,ESE,120,1.4,4.0,53,0.00,,,0.00,WSDL version 426,2013-03-27 11:28:00,
2013-03-27 06:33:00,32.4,17.2,29.50,ESE,115,3.0,3.8,53,-99.99,,,-99.99,WSDL version 426,2013-03-27 11:33:00,
2013-03-27 06:38:00,32.5,17.7,29.50,East,95,2.3,4.3,54,0.00,,,0.00,WSDL version 426,2013-03-27 11:38:00,
2013-03-27 06:43:00,32.7,17.9,29.50,ESE,113,2.4,4.3,54,-99.99,,,-99.99,WSDL version 426,2013-03-27 11:43:00,
2013-03-27 06:48:00,32.7,17.9,29.50,East,90,2.8,4.3,54,0.00,,,0.00,WSDL version 426,2013-03-27 11:48:00,
2013-03-27 06:53:00,32.7,18.3,29.50,ESE,110,3.7,5.4,55,0.00,,,0.00,WSDL version 426,2013-03-27 11:53:00,
2013-03-27 06:58:00,32.7,18.4,29.50,East,93,3.7,5.4,56,0.00,,,0.00,WSDL version 426,2013-03-27 11:58:00,
2013-03-27 07:03:00,32.8,18.8,29.50,ESE,113,4.3,6.3,56,-99.99,,,-99.99,WSDL version 426,2013-03-27 12:03:00,
2013-03-27 07:08:00,32.9,18.9,29.50,SE,124,3.8,6.3,56,-99.99,,,-99.99,WSDL version 426,2013-03-27 12:08:00,
2013-03-27 07:13:00,32.9,18.6,29.50,SE,135,3.8,6.3,55,-99.99,,,-99.99,WSDL version 426,2013-03-27 12:13:00,
2013-03-27 07:18:00,32.8,18.4,29.50,East,93,2.4,5.6,55,0.00,,,0.00,WSDL version 426,2013-03-27 12:18:00,
2013-03-27 07:23:00,32.8,18.4,29.50,ESE,118,3.1,4.5,55,0.00,,,0.00,WSDL version 426,2013-03-27 12:23:00,
2013-03-27 07:28:00,33.0,18.8,29.50,ESE,108,2.8,4.5,56,0.00,,,0.00,WSDL version 426,2013-03-27 12:28:00,
2013-03-27 07:33:00,33.1,19.1,29.50,ESE,118,3.1,4.5,56,-99.99,,,-99.99,WSDL version 426,2013-03-27 12:33:00,
2013-03-27 07:38:00,33.1,19.1,29.50,SE,125,3.5,4.9,56,-99.99,,,-99.99,WSDL version 426,2013-03-27 12:38:00,
2013-03-27 07:43:00,33.3,19.3,29.50,ESE,115,4.7,6.3,56,-99.99,,,-99.99,WSDL version 426,2013-03-27 12:43:00,
2013-03-27 07:49:00,33.7,19.6,29.50,SE,125,5.0,7.6,56,0.00,,,0.00,WSDL version 426,2013-03-27 12:49:00,
2013-03-27 07:54:00,34.0,19.5,29.50,ESE,118,4.4,7.2,55,0.00,,,0.00,WSDL version 426,2013-03-27 12:54:00,
2013-03-27 07:59:00,34.5,20.0,29.53,SE,130,4.3,7.2,55,0.00,,,0.00,WSDL version 426,2013-03-27 12:59:00,
2013-03-27 08:04:00,35.0,20.0,29.53,SE,132,4.4,7.8,54,0.00,,,0.00,WSDL version 426,2013-03-27 13:04:00,
2013-03-27 08:09:00,35.5,20.0,29.53,SE,138,3.9,7.8,53,-99.99,,,-99.99,WSDL version 426,2013-03-27 13:09:00,
2013-03-27 08:14:00,35.9,20.1,29.53,SE,128,5.4,8.1,52,0.00,,,0.00,WSDL version 426,2013-03-27 13:14:00,
2013-03-27 08:19:00,36.3,20.2,29.53,SE,129,6.2,9.2,51,0.00,,,0.00,WSDL version 426,2013-03-27 13:19:00,
2013-03-27 08:24:00,36.8,20.4,29.53,ESE,122,6.3,10.1,51,0.00,,,0.00,WSDL version 426,2013-03-27 13:24:00,
2013-03-27 08:29:00,37.3,20.6,29.53,ESE,118,5.2,10.1,50,0.00,,,0.00,WSDL version 426,2013-03-27 13:29:00,
2013-03-27 08:34:00,37.8,20.6,29.53,SE,124,6.1,8.7,49,0.00,,,0.00,WSDL version 426,2013-03-27 13:34:00,
2013-03-27 08:39:00,38.2,20.7,29.53,SE,133,5.1,8.7,49,0.00,,,0.00,WSDL version 426,2013-03-27 13:39:00,
2013-03-27 08:44:00,38.7,21.2,29.53,SE,135,5.4,8.5,49,0.00,,,0.00,WSDL version 426,2013-03-27 13:44:00,
2013-03-27 08:50:00,39.1,20.9,29.53,ESE,118,5.0,8.5,48,0.00,,,0.00,WSDL version 426,2013-03-27 13:50:00,
2013-03-27 08:55:00,39.7,21.6,29.53,SE,125,5.1,8.1,48,0.00,,,0.00,WSDL version 426,2013-03-27 13:55:00,
2013-03-27 09:00:00,40.4,21.9,29.53,SE,125,3.8,8.7,47,0.00,,,0.00,WSDL version 426,2013-03-27 14:00:00,
2013-03-27 09:05:00,40.8,21.3,29.53,SSE,149,5.1,10.5,44,0.00,,,0.00,WSDL version 426,2013-03-27 14:05:00,
2013-03-27 09:10:00,41.5,21.4,29.53,SE,135,4.0,10.5,45,0.00,,,0.00,WSDL version 426,2013-03-27 14:10:00,
2013-03-27 09:15:00,42.1,21.5,29.53,SE,141,5.6,9.6,43,0.00,,,0.00,WSDL version 426,2013-03-27 14:15:00,
2013-03-27 09:20:00,42.7,21.0,29.53,ESE,123,6.2,13.4,41,0.00,,,0.00,WSDL version 426,2013-03-27 14:20:00,
2013-03-27 09:28:00,43.7,21.2,29.53,SE,133,7.6,15.9,40,0.00,,,0.00,WSDL version 426,2013-03-27 14:28:00,
2013-03-27 09:34:00,44.4,21.3,29.53,SSE,153,8.2,15.9,39,0.00,,,0.00,WSDL version 426,2013-03-27 14:34:00,
2013-03-27 09:39:00,44.9,21.5,29.53,SE,135,6.8,12.8,39,0.00,,,0.00,WSDL version 426,2013-03-27 14:39:00,
2013-03-27 09:44:00,45.6,22.0,29.53,SSE,150,6.5,12.3,39,0.00,,,0.00,WSDL version 426,2013-03-27 14:44:00,
2013-03-27 09:49:00,46.1,22.1,29.53,South,169,8.3,12.5,38,0.00,,,0.00,WSDL version 426,2013-03-27 14:49:00,
2013-03-27 09:54:00,46.4,22.2,29.53,SSE,158,6.7,12.8,38,0.00,,,0.00,WSDL version 426,2013-03-27 14:54:00,
2013-03-27 09:59:00,46.8,22.0,29.53,South,172,8.0,17.0,37,0.00,,,0.00,WSDL version 426,2013-03-27 14:59:00,
2013-03-27 10:04:00,47.4,22.5,29.53,ESE,118,10.1,17.0,37,0.00,,,0.00,WSDL version 426,2013-03-27 15:04:00,
2013-03-27 10:09:00,47.8,22.8,29.53,SE,140,8.6,17.2,37,0.00,,,0.00,WSDL version 426,2013-03-27 15:09:00,
2013-03-27 10:14:00,48.3,22.6,29.50,SSE,158,8.7,17.2,35,0.00,,,0.00,WSDL version 426,2013-03-27 15:14:00,
2013-03-27 10:19:00,49.0,22.9,29.50,SSE,158,8.1,17.0,35,0.00,,,0.00,WSDL version 426,2013-03-27 15:19:00,
2013-03-27 10:24:00,49.9,23.1,29.50,SSE,150,8.2,16.8,34,0.00,,,0.00,WSDL version 426,2013-03-27 15:24:00,
2013-03-27 10:29:00,50.9,22.4,29.50,SE,143,9.8,15.4,31,0.00,,,0.00,WSDL version 426,2013-03-27 15:29:00,
2013-03-27 10:34:00,51.6,21.7,29.50,SSE,153,8.1,16.6,30,0.00,,,0.00,WSDL version 426,2013-03-27 15:34:00,
2013-03-27 10:40:00,52.0,20.9,29.50,SSE,165,13.3,21.5,29,0.00,,,0.00,WSDL version 426,2013-03-27 15:40:00,
2013-03-27 10:45:00,52.2,20.9,29.50,South,183,8.1,21.5,29,0.00,,,0.00,WSDL version 426,2013-03-27 15:45:00,
2013-03-27 10:50:00,53.1,20.9,29.50,SSE,151,7.9,21.3,28,0.00,,,0.00,WSDL version 426,2013-03-27 15:50:00,
2013-03-27 10:55:00,54.2,21.8,29.50,SSE,148,10.2,21.3,28,0.00,,,0.00,WSDL version 426,2013-03-27 15:55:00,
2013-03-27 11:00:00,54.5,21.2,29.50,South,180,11.3,17.7,27,0.00,,,0.00,WSDL version 426,2013-03-27 16:00:00,
2013-03-27 11:05:00,54.8,21.5,29.50,SSE,148,11.6,22.1,27,0.00,,,0.00,WSDL version 426,2013-03-27 16:05:00,
2013-03-27 11:10:00,55.1,21.4,29.50,South,180,11.6,22.1,26,0.00,,,0.00,WSDL version 426,2013-03-27 16:10:00,
2013-03-27 11:15:00,55.5,21.2,29.50,South,186,11.2,19.0,26,0.00,,,0.00,WSDL version 426,2013-03-27 16:15:00,
2013-03-27 11:20:00,56.0,21.6,29.50,SSE,155,9.9,19.0,26,0.00,,,0.00,WSDL version 426,2013-03-27 16:20:00,
2013-03-27 11:25:00,56.2,21.8,29.50,SSE,152,11.9,22.8,26,0.00,,,0.00,WSDL version 426,2013-03-27 16:25:00,
2013-03-27 11:30:00,56.6,21.9,29.50,SSE,158,14.3,22.8,25,0.00,,,0.00,WSDL version 426,2013-03-27 16:30:00,
2013-03-27 11:35:00,56.7,21.7,29.50,South,177,9.9,20.4,26,0.00,,,0.00,WSDL version 426,2013-03-27 16:35:00,
2013-03-27 11:41:00,57.2,21.7,29.47,SSE,149,9.8,14.8,25,0.00,,,0.00,WSDL version 426,2013-03-27 16:41:00,
2013-03-27 11:47:00,57.6,22.0,29.47,SSE,168,12.3,19.5,25,0.00,,,0.00,WSDL version 426,2013-03-27 16:47:00,
2013-03-27 11:52:00,58.2,22.5,29.47,SSE,152,9.9,19.5,25,0.00,,,0.00,WSDL version 426,2013-03-27 16:52:00,
2013-03-27 11:57:00,58.9,23.0,29.47,SE,135,10.1,19.2,24,0.00,,,0.00,WSDL version 426,2013-03-27 16:57:00,
2013-03-27 12:02:00,59.2,22.5,29.47,South,175,12.0,23.7,24,0.00,,,0.00,WSDL version 426,2013-03-27 17:02:00,
2013-03-27 12:08:00,59.8,22.9,29.47,SE,145,10.4,23.7,24,0.00,,,0.00,WSDL version 426,2013-03-27 17:08:00,
2013-03-27 12:13:00,60.2,23.3,29.47,South,174,10.3,23.7,24,0.00,,,0.00,WSDL version 426,2013-03-27 17:13:00,
2013-03-27 12:18:00,61.1,24.0,29.47,SSE,148,11.7,17.7,24,0.00,,,0.00,WSDL version 426,2013-03-27 17:18:00,
2013-03-27 12:23:00,61.8,24.1,29.47,South,170,9.4,17.4,24,0.00,,,0.00,WSDL version 426,2013-03-27 17:23:00,
2013-03-27 12:28:00,62.2,22.4,29.44,South,174,11.7,21.9,21,0.00,,,0.00,WSDL version 426,2013-03-27 17:28:00,
2013-03-27 12:33:00,62.2,21.8,29.44,SE,145,10.3,21.9,21,0.00,,,0.00,WSDL version 426,2013-03-27 17:33:00,
2013-03-27 12:38:00,62.4,21.9,29.44,SE,146,7.7,17.7,21,0.00,,,0.00,WSDL version 426,2013-03-27 17:38:00,
2013-03-27 12:43:00,62.9,19.5,29.44,SSE,163,10.2,17.7,18,0.00,,,0.00,WSDL version 426,2013-03-27 17:43:00,
2013-03-27 12:48:00,63.1,19.6,29.44,SSE,152,8.3,19.7,18,0.00,,,0.00,WSDL version 426,2013-03-27 17:48:00,
2013-03-27 12:53:00,63.1,18.9,29.44,SE,129,9.8,22.8,18,0.00,,,0.00,WSDL version 426,2013-03-27 17:53:00,
2013-03-27 12:58:00,63.3,19.1,29.44,SSE,148,9.6,22.8,18,0.00,,,0.00,WSDL version 426,2013-03-27 17:58:00,
2013-03-27 13:03:00,62.7,19.1,29.44,SE,138,11.6,25.9,19,0.00,,,0.00,WSDL version 426,2013-03-27 18:03:00,
2013-03-27 13:08:00,62.3,19.5,29.44,SE,143,9.5,25.9,19,0.00,,,0.00,WSDL version 426,2013-03-27 18:08:00,
2013-03-27 13:13:00,62.8,18.9,29.44,SE,146,13.8,21.5,18,0.00,,,0.00,WSDL version 426,2013-03-27 18:13:00,
2013-03-27 13:18:00,63.4,19.1,29.44,SSE,160,8.6,20.1,18,0.00,,,0.00,WSDL version 426,2013-03-27 18:18:00,
2013-03-27 13:23:00,64.0,19.6,29.44,SSE,166,11.7,19.5,18,0.00,,,0.00,WSDL version 426,2013-03-27 18:23:00,
2013-03-27 13:28:00,63.7,19.5,29.41,South,180,11.1,19.5,18,0.00,,,0.00,WSDL version 426,2013-03-27 18:28:00,
2013-03-27 13:33:00,63.9,19.6,29.41,SE,133,10.9,19.5,18,0.00,,,0.00,WSDL version 426,2013-03-27 18:33:00,
2013-03-27 13:38:00,63.8,19.5,29.41,SSE,160,9.3,19.5,18,0.00,,,0.00,WSDL version 426,2013-03-27 18:38:00,
2013-03-27 13:43:00,64.1,19.8,29.41,SE,146,10.2,17.9,18,0.00,,,0.00,WSDL version 426,2013-03-27 18:43:00,
2013-03-27 13:48:00,64.5,20.1,29.41,SE,127,10.5,19.2,18,0.00,,,0.00,WSDL version 426,2013-03-27 18:48:00,
2013-03-27 13:53:00,65.1,20.6,29.41,SSE,160,13.8,25.5,18,0.00,,,0.00,WSDL version 426,2013-03-27 18:53:00,
2013-03-27 13:58:00,64.6,20.2,29.41,SSE,152,11.0,25.5,18,0.00,,,0.00,WSDL version 426,2013-03-27 18:58:00,
2013-03-27 14:03:00,65.4,20.8,29.41,SSE,160,12.2,17.7,18,0.00,,,0.00,WSDL version 426,2013-03-27 19:03:00,
2013-03-27 14:09:00,66.5,20.6,29.41,SSE,163,11.0,25.3,17,0.00,,,0.00,WSDL version 426,2013-03-27 19:09:00,
2013-03-27 14:14:00,66.7,20.0,29.38,SSE,149,11.5,25.3,17,0.00,,,0.00,WSDL version 426,2013-03-27 19:14:00,
2013-03-27 14:19:00,66.0,20.2,29.38,South,174,10.9,19.7,18,0.00,,,0.00,WSDL version 426,2013-03-27 19:19:00,
2013-03-27 14:24:00,66.1,20.8,29.38,SSE,148,12.7,19.2,17,0.00,,,0.00,WSDL version 426,2013-03-27 19:24:00,
2013-03-27 14:29:00,66.7,20.5,29.38,SSE,163,10.9,22.1,17,0.00,,,0.00,WSDL version 426,2013-03-27 19:29:00,
2013-03-27 14:34:00,66.7,19.8,29.38,SSE,152,9.1,23.0,17,0.00,,,0.00,WSDL version 426,2013-03-27 19:34:00,
2013-03-27 14:39:00,66.7,20.5,29.38,SSE,165,8.0,23.0,17,0.00,,,0.00,WSDL version 426,2013-03-27 19:39:00,
2013-03-27 14:44:00,66.6,19.8,29.38,SE,145,13.4,22.4,17,0.00,,,0.00,WSDL version 426,2013-03-27 19:44:00,
2013-03-27 14:49:00,67.1,20.3,29.38,South,175,12.3,22.8,15,0.00,,,0.00,WSDL version 426,2013-03-27 19:49:00,
2013-03-27 14:54:00,67.3,21.0,29.38,SSE,160,16.4,25.3,17,0.00,,,0.00,WSDL version 426,2013-03-27 19:54:00,
2013-03-27 14:59:00,67.9,20.9,29.38,SSE,149,8.5,25.3,17,0.00,,,0.00,WSDL version 426,2013-03-27 19:59:00,
2013-03-27 15:04:00,68.8,22.2,29.38,SE,138,9.9,22.1,17,0.00,,,0.00,WSDL version 426,2013-03-27 20:04:00,
2013-03-27 15:09:00,69.2,21.3,29.38,SE,146,12.0,22.1,15,0.00,,,0.00,WSDL version 426,2013-03-27 20:09:00,
2013-03-27 15:14:00,69.6,21.4,29.38,SSE,163,8.2,19.2,17,0.00,,,0.00,WSDL version 426,2013-03-27 20:14:00,
2013-03-27 15:19:00,70.1,19.6,29.38,SSE,166,8.6,17.0,14,0.00,,,0.00,WSDL version 426,2013-03-27 20:19:00,
2013-03-27 15:24:00,69.8,19.4,29.38,South,170,9.4,19.5,15,0.00,,,0.00,WSDL version 426,2013-03-27 20:24:00,
2013-03-27 15:29:00,69.8,18.8,29.35,SSE,160,10.3,19.9,14,0.00,,,0.00,WSDL version 426,2013-03-27 20:29:00,
2013-03-27 15:34:00,69.9,18.6,29.35,SSE,163,10.3,19.9,14,0.00,,,0.00,WSDL version 426,2013-03-27 20:34:00,
2013-03-27 15:39:00,69.8,18.5,29.35,SSE,153,10.2,19.5,14,0.00,,,0.00,WSDL version 426,2013-03-27 20:39:00,
2013-03-27 15:44:00,70.3,18.9,29.35,SSE,148,11.4,19.5,14,0.00,,,0.00,WSDL version 426,2013-03-27 20:44:00,
2013-03-27 15:49:00,70.6,19.1,29.35,South,183,11.7,17.0,14,0.00,,,0.00,WSDL version 426,2013-03-27 20:49:00,
2013-03-27 15:54:00,70.9,20.1,29.35,SSE,158,7.8,17.0,14,-99.99,,,-99.99,WSDL version 426,2013-03-27 20:54:00,
2013-03-27 15:59:00,70.8,19.3,29.35,SSE,158,11.0,19.2,14,0.00,,,0.00,WSDL version 426,2013-03-27 20:59:00,
2013-03-27 16:04:00,70.6,19.1,29.35,South,186,11.0,19.2,14,0.00,,,0.00,WSDL version 426,2013-03-27 21:04:00,
2013-03-27 16:09:00,70.8,19.2,29.35,SSE,158,7.4,18.8,14,0.00,,,0.00,WSDL version 426,2013-03-27 21:09:00,
2013-03-27 16:14:00,70.7,19.2,29.35,South,188,11.7,22.8,14,0.00,,,0.00,WSDL version 426,2013-03-27 21:14:00,
2013-03-27 16:19:00,70.8,19.3,29.35,SSW,197,9.0,22.8,14,0.00,,,0.00,WSDL version 426,2013-03-27 21:19:00,
2013-03-27 16:24:00,71.2,19.6,29.35,South,178,8.7,14.8,14,0.00,,,0.00,WSDL version 426,2013-03-27 21:24:00,
2013-03-27 16:29:00,72.1,20.3,29.35,South,191,9.9,14.3,14,0.00,,,0.00,WSDL version 426,2013-03-27 21:29:00,
2013-03-27 16:34:00,72.2,20.4,29.35,South,180,9.8,15.4,14,0.00,,,0.00,WSDL version 426,2013-03-27 21:34:00,
2013-03-27 16:39:00,72.0,20.2,29.35,SSW,195,8.0,15.4,14,0.00,,,0.00,WSDL version 426,2013-03-27 21:39:00,
2013-03-27 16:44:00,72.5,20.6,29.35,SSE,165,9.7,12.5,14,0.00,,,0.00,WSDL version 426,2013-03-27 21:44:00,
2013-03-27 16:50:00,73.3,20.8,29.35,SSE,152,9.5,16.1,13,0.00,,,0.00,WSDL version 426,2013-03-27 21:50:00,
2013-03-27 16:55:00,74.1,20.1,29.35,SE,145,9.3,14.8,13,0.00,,,0.00,WSDL version 426,2013-03-27 21:55:00,
2013-03-27 17:00:00,74.2,20.3,29.35,South,180,9.2,14.8,13,0.00,,,0.00,WSDL version 426,2013-03-27 22:00:00,
2013-03-27 17:05:00,73.4,20.0,29.35,SSW,205,8.4,14.8,14,0.00,,,0.00,WSDL version 426,2013-03-27 22:05:00,
2013-03-27 17:10:00,72.8,20.9,29.35,SSW,210,7.6,14.8,14,0.00,,,0.00,WSDL version 426,2013-03-27 22:10:00,
2013-03-27 17:15:00,73.5,20.4,29.35,SSE,160,7.8,14.8,13,0.00,,,0.00,WSDL version 426,2013-03-27 22:15:00,
2013-03-27 17:20:00,74.2,20.2,29.35,SSE,155,11.7,16.8,13,0.00,,,0.00,WSDL version 426,2013-03-27 22:20:00,
2013-03-27 17:25:00,73.6,19.7,29.35,SSE,161,10.4,19.9,13,0.00,,,0.00,WSDL version 426,2013-03-27 22:25:00,
2013-03-27 17:30:00,73.3,20.4,29.35,South,188,10.8,19.9,14,0.00,,,0.00,WSDL version 426,2013-03-27 22:30:00,
2013-03-27 17:35:00,73.2,20.8,29.35,South,175,9.2,19.9,13,0.00,,,0.00,WSDL version 426,2013-03-27 22:35:00,
2013-03-27 17:40:00,73.1,21.1,29.35,South,191,9.5,15.2,14,0.00,,,0.00,WSDL version 426,2013-03-27 22:40:00,
2013-03-27 17:45:00,72.6,20.7,29.35,South,183,8.0,15.4,14,0.00,,,0.00,WSDL version 426,2013-03-27 22:45:00,
2013-03-27 17:50:00,73.0,21.0,29.35,SSE,158,8.3,15.4,14,0.00,,,0.00,WSDL version 426,2013-03-27 22:50:00,
2013-03-27 17:55:00,73.6,19.8,29.35,SSE,168,7.2,12.5,13,0.00,,,0.00,WSDL version 426,2013-03-27 22:55:00,
2013-03-27 18:00:00,73.6,19.8,29.35,South,169,9.6,17.0,13,0.00,,,0.00,WSDL version 426,2013-03-27 23:00:00,
2013-03-27 18:05:00,73.4,19.6,29.35,SSE,153,9.1,17.0,13,0.00,,,0.00,WSDL version 426,2013-03-27 23:05:00,
2013-03-27 18:10:00,73.3,20.7,29.35,SSE,160,6.2,16.8,14,0.00,,,0.00,WSDL version 426,2013-03-27 23:10:00,
2013-03-27 18:15:00,73.0,21.0,29.35,South,180,9.9,19.7,14,0.00,,,0.00,WSDL version 426,2013-03-27 23:15:00,
2013-03-27 18:20:00,72.3,20.5,29.35,South,173,7.0,19.7,14,0.00,,,0.00,WSDL version 426,2013-03-27 23:20:00,
2013-03-27 18:25:00,72.0,20.2,29.35,SSE,167,8.7,16.1,14,0.00,,,0.00,WSDL version 426,2013-03-27 23:25:00,
2013-03-27 18:30:00,72.0,20.2,29.35,South,175,5.9,16.1,14,0.00,,,0.00,WSDL version 426,2013-03-27 23:30:00,
2013-03-27 18:35:00,71.9,20.1,29.35,SSE,161,6.4,10.7,14,0.00,,,0.00,WSDL version 426,2013-03-27 23:35:00,
2013-03-27 18:40:00,72.0,20.2,29.35,SSE,163,6.6,12.8,14,0.00,,,0.00,WSDL version 426,2013-03-27 23:40:00,
2013-03-27 18:45:00,71.5,19.9,29.35,SSE,163,6.1,12.8,14,0.00,,,0.00,WSDL version 426,2013-03-27 23:45:00,
2013-03-27 18:50:00,71.1,19.5,29.35,SSE,152,7.0,10.7,14,0.00,,,0.00,WSDL version 426,2013-03-27 23:50:00,
2013-03-27 18:55:00,70.6,19.2,29.35,SSE,160,6.2,13.0,14,0.00,,,0.00,WSDL version 426,2013-03-27 23:55:00,
2013-03-27 19:00:00,70.0,18.6,29.35,SSE,152,5.6,13.0,14,0.00,,,0.00,WSDL version 426,2013-03-28 00:00:00,
2013-03-27 19:05:00,69.8,18.9,29.35,SE,141,6.9,12.1,15,0.00,,,0.00,WSDL version 426,2013-03-28 00:05:00,
2013-03-27 19:10:00,69.3,19.7,29.35,South,177,5.1,12.1,15,0.00,,,0.00,WSDL version 426,2013-03-28 00:10:00,
2013-03-27 19:15:00,68.5,19.6,29.35,SSE,158,5.6,10.1,17,0.00,,,0.00,WSDL version 426,2013-03-28 00:15:00,
2013-03-27 19:20:00,67.6,21.2,29.35,SSE,155,6.2,10.1,17,0.00,,,0.00,WSDL version 426,2013-03-28 00:20:00,
2013-03-27 19:25:00,66.7,20.5,29.35,SSE,149,3.3,9.6,17,0.00,,,0.00,WSDL version 426,2013-03-28 00:25:00,
2013-03-27 19:30:00,65.9,21.0,29.35,SE,138,3.7,6.3,18,0.00,,,0.00,WSDL version 426,2013-03-28 00:30:00,
2013-03-27 19:35:00,65.2,20.6,29.35,SSE,162,3.7,6.5,18,0.00,,,0.00,WSDL version 426,2013-03-28 00:35:00,
2013-03-27 19:40:00,64.3,21.7,29.35,SE,130,3.5,7.4,21,0.00,,,0.00,WSDL version 426,2013-03-28 00:40:00,
2013-03-27 19:45:00,63.6,23.0,29.35,SSE,166,4.4,7.4,21,0.00,,,0.00,WSDL version 426,2013-03-28 00:45:00,
2013-03-27 19:50:00,63.0,22.5,29.35,SSE,150,5.3,8.5,21,0.00,,,0.00,WSDL version 426,2013-03-28 00:50:00,
2013-03-27 19:55:00,62.5,24.7,29.35,SSE,158,3.8,8.5,24,0.00,,,0.00,WSDL version 426,2013-03-28 00:55:00,
2013-03-27 20:00:00,62.0,24.8,29.38,SSE,155,4.3,7.8,24,0.00,,,0.00,WSDL version 426,2013-03-28 01:00:00,
2013-03-27 20:05:00,61.6,24.5,29.38,SSE,148,4.0,7.4,24,0.00,,,0.00,WSDL version 426,2013-03-28 01:05:00,
2013-03-27 20:10:00,61.3,24.3,29.38,SE,143,3.3,8.1,24,-99.99,,,-99.99,WSDL version 426,2013-03-28 01:10:00,
2013-03-27 20:15:00,60.8,24.0,29.38,ESE,120,3.4,8.1,25,-99.99,,,-99.99,WSDL version 426,2013-03-28 01:15:00,
2013-03-27 20:20:00,60.1,24.2,29.38,ESE,107,3.0,4.9,25,-99.99,,,-99.99,WSDL version 426,2013-03-28 01:20:00,
2013-03-27 20:25:00,59.3,23.5,29.38,SE,128,4.7,6.0,25,0.00,,,0.00,WSDL version 426,2013-03-28 01:25:00,
2013-03-27 20:30:00,58.8,23.8,29.38,SE,133,4.3,6.3,26,0.00,,,0.00,WSDL version 426,2013-03-28 01:30:00,
2013-03-27 20:35:00,58.5,23.7,29.38,ESE,115,3.4,6.3,26,0.00,,,0.00,WSDL version 426,2013-03-28 01:35:00,
2013-03-27 20:40:00,58.0,23.3,29.38,SE,128,4.3,6.0,26,0.00,,,0.00,WSDL version 426,2013-03-28 01:40:00,
2013-03-27 20:45:00,57.6,23.4,29.38,SE,124,4.7,6.3,27,0.00,,,0.00,WSDL version 426,2013-03-28 01:45:00,
2013-03-27 20:50:00,57.4,23.7,29.38,ESE,123,4.5,7.2,27,0.00,,,0.00,WSDL version 426,2013-03-28 01:50:00,
2013-03-27 20:55:00,57.3,23.6,29.38,SE,135,4.8,8.1,27,0.00,,,0.00,WSDL version 426,2013-03-28 01:55:00,
2013-03-27 21:00:00,57.2,24.2,29.38,ESE,118,4.9,8.1,28,0.00,,,0.00,WSDL version 426,2013-03-28 02:00:00,
2013-03-27 21:05:00,57.2,24.4,29.38,SE,125,6.0,7.8,28,0.00,,,0.00,WSDL version 426,2013-03-28 02:05:00,
2013-03-27 21:10:00,57.2,24.4,29.38,ESE,113,5.8,8.1,28,0.00,,,0.00,WSDL version 426,2013-03-28 02:10:00,
2013-03-27 21:15:00,57.2,24.4,29.38,SE,140,6.2,8.5,28,0.00,,,0.00,WSDL version 426,2013-03-28 02:15:00,
2013-03-27 21:20:00,57.2,24.4,29.38,ESE,113,6.0,8.7,28,0.00,,,0.00,WSDL version 426,2013-03-28 02:20:00,
2013-03-27 21:25:00,57.2,24.4,29.38,SE,132,5.3,8.7,28,-99.99,,,-99.99,WSDL version 426,2013-03-28 02:25:00,
2013-03-27 21:31:00,57.2,24.4,29.38,SE,129,4.9,8.7,28,0.00,,,0.00,WSDL version 426,2013-03-28 02:31:00,
2013-03-27 21:37:00,57.0,25.1,29.38,SE,132,4.3,8.7,29,-99.99,,,-99.99,WSDL version 426,2013-03-28 02:37:00,
2013-03-27 21:42:00,56.8,24.9,29.38,ESE,120,4.2,7.8,29,-99.99,,,-99.99,WSDL version 426,2013-03-28 02:42:00,
2013-03-27 21:47:00,56.6,24.8,29.38,SE,135,3.5,5.8,29,-99.99,,,-99.99,WSDL version 426,2013-03-28 02:47:00,
2013-03-27 21:52:00,56.3,24.5,29.38,SE,143,3.5,6.0,29,-99.99,,,-99.99,WSDL version 426,2013-03-28 02:52:00,
2013-03-27 21:57:00,56.0,24.2,29.38,SE,140,4.3,6.0,29,0.00,,,0.00,WSDL version 426,2013-03-28 02:57:00,
2013-03-27 22:02:00,55.9,24.2,29.38,SE,146,3.5,6.5,29,0.00,,,0.00,WSDL version 426,2013-03-28 03:02:00,
2013-03-27 22:07:00,55.9,24.2,29.38,SE,143,4.5,8.5,29,0.00,,,0.00,WSDL version 426,2013-03-28 03:07:00,
2013-03-27 22:12:00,55.9,24.2,29.41,SE,146,4.0,8.5,29,0.00,,,0.00,WSDL version 426,2013-03-28 03:12:00,
2013-03-27 22:17:00,55.9,24.2,29.41,SSE,165,3.7,8.1,29,-99.99,,,-99.99,WSDL version 426,2013-03-28 03:17:00,
2013-03-27 22:22:00,56.1,24.3,29.41,SE,130,4.0,9.4,29,-99.99,,,-99.99,WSDL version 426,2013-03-28 03:22:00,
2013-03-27 22:27:00,56.2,24.4,29.41,SE,127,4.6,9.4,29,-99.99,,,-99.99,WSDL version 426,2013-03-28 03:27:00,
2013-03-27 22:33:00,56.3,24.5,29.41,SE,138,4.6,8.1,29,-99.99,,,-99.99,WSDL version 426,2013-03-28 03:33:00,
2013-03-27 22:38:00,56.3,24.5,29.41,SE,145,4.6,10.7,29,-99.99,,,-99.99,WSDL version 426,2013-03-28 03:38:00,
2013-03-27 22:43:00,56.5,23.9,29.41,SE,130,3.8,10.7,28,-99.99,,,-99.99,WSDL version 426,2013-03-28 03:43:00,
2013-03-27 22:48:00,56.5,23.8,29.41,ESE,115,5.0,8.5,28,-99.99,,,-99.99,WSDL version 426,2013-03-28 03:48:00,
2013-03-27 22:53:00,56.5,23.8,29.41,SE,128,5.0,8.5,28,-99.99,,,-99.99,WSDL version 426,2013-03-28 03:53:00,
2013-03-27 22:58:00,56.6,23.9,29.41,SE,127,3.6,11.4,28,-99.99,,,-99.99,WSDL version 426,2013-03-28 03:58:00,
2013-03-27 23:00:00,56.7,23.9,29.41,SSE,158,4.2,11.4,28,-99.99,,,-99.99,WSDL version 426,2013-03-28 04:00:00,
2013-03-27 23:01:00,56.7,23.9,29.41,SSE,158,4.9,11.4,28,-99.99,,,-99.99,WSDL version 426,2013-03-28 04:01:00,
2013-03-27 23:03:00,56.7,23.9,29.41,SSE,149,6.4,11.4,28,-99.99,,,-99.99,WSDL version 426,2013-03-28 04:03:00,
2013-03-27 23:07:00,56.8,23.9,29.41,South,178,4.0,8.1,27,-99.99,,,-99.99,WSDL version 426,2013-03-28 04:07:00,
2013-03-27 23:12:00,56.8,23.2,29.41,SSE,152,3.9,7.6,27,-99.99,,,-99.99,WSDL version 426,2013-03-28 04:12:00,
2013-03-27 23:17:00,56.7,23.1,29.41,SE,143,5.4,9.6,27,0.00,,,0.00,WSDL version 426,2013-03-28 04:17:00,
2013-03-27 23:22:00,56.7,23.1,29.41,SSE,155,5.9,10.1,27,0.00,,,0.00,WSDL version 426,2013-03-28 04:22:00,
2013-03-27 23:27:00,56.7,23.1,29.41,SSE,150,5.9,10.7,27,-99.99,,,-99.99,WSDL version 426,2013-03-28 04:27:00,
2013-03-27 23:32:00,56.7,23.1,29.41,SSE,158,4.6,10.7,27,-99.99,,,-99.99,WSDL version 426,2013-03-28 04:32:00,
2013-03-27 23:37:00,56.8,23.2,29.41,SSE,160,4.6,10.1,27,-99.99,,,-99.99,WSDL version 426,2013-03-28 04:37:00,
2013-03-27 23:42:00,56.8,23.2,29.41,SSE,160,6.2,10.7,27,-99.99,,,-99.99,WSDL version 426,2013-03-28 04:42:00,
2013-03-27 23:47:00,56.8,23.2,29.41,SE,146,4.3,10.7,27,-99.99,,,-99.99,WSDL version 426,2013-03-28 04:47:00,
2013-03-27 23:52:00,56.5,22.9,29.41,SSE,160,4.2,10.5,27,-99.99,,,-99.99,WSDL version 426,2013-03-28 04:52:00,
2013-03-27 23:57:00,56.2,22.7,29.38,SSE,155,6.3,10.5,27,-99.99,,,-99.99,WSDL version 426,2013-03-28 04:57:00,